AirNav   Air Wisconsin Airman Trainee
 
 906 users online  

KAOV Ava Bill Martin Memorial Airport
Ava, Missouri, USA

GOING TO AVA?


FAA INFORMATION EFFECTIVE 23 MAY 2019

Location

FAA Identifier: AOV
Lat/Long: 36-58-18.7940N / 092-40-55.0050W
36-58.313233N / 092-40.916750W
36.9718872 / -92.6819458
(estimated)
Elevation: 1311 ft. / 399.6 m (surveyed)
Variation: 02E (2000)
From city: 2 miles NW of AVA, MO
Time zone: UTC -5 (UTC -6 during Standard Time)
Zip code: 65608

Airport Operations

Airport use: Open to the public
Control tower: no
ARTCC: KANSAS CITY CENTER
FSS: COLUMBIA FLIGHT SERVICE STATION
NOTAMs facility: COU (NOTAM-D service available)
Attendance: UNATNDD
Wind indicator: lighted
Segmented circle: yes
Lights: ACTVT MIRL RY 13/31 - CTAF.
Beacon: white-green (lighted land airport)
Operates sunset to sunrise.

Airport Communications

CTAF/UNICOM: 122.7
SPRINGFIELD APPROACH: 126.35
SPRINGFIELD DEPARTURE: 126.35

Nearby radio navigation aids

VOR radial/distance  VOR name  Freq  Var
DGDr107/9.8DOGWOOD VORTAC109.4001E
SGFr122/38.8SPRINGFIELD VORTAC116.9004E

Airport Services

Fuel available: 100LL
Parking: tiedowns
Airframe service: MAJOR
Powerplant service: MAJOR
Bottled oxygen: NONE
Bulk oxygen: NONE

Runway Information

Runway 13/31

Dimensions: 3634 x 50 ft. / 1108 x 15 m
Surface: asphalt, in good condition
Runway edge lights: medium intensity
Runway edge markings: MARKINGS FADED.
RUNWAY 13  RUNWAY 31
Latitude: 36-58.534085N36-58.093648N
Longitude: 092-41.169547W092-40.663890W
Elevation: 1277.0 ft.1311.0 ft.
Traffic pattern: leftleft
Runway heading: 135 magnetic, 137 true315 magnetic, 317 true
Markings: nonprecision, in fair conditionnonprecision, in fair condition
Visual slope indicator: 2-box SAVASI on left (3.00 degrees glide path)
Touchdown point: yes, no lightsyes, no lights
Obstructions: 33 ft. trees, 235 ft. from runway, 197 ft. right of centerline, 1:1 slope to clear
TREES 10-35' TALL, 10-175' FROM RUNWAY END, 150-250 FT RIGHT
none

Airport Ownership and Management from official FAA records

Ownership: Publicly-owned
Owner: CITY OF AVA
127 SW 2ND AVE, PO BOX 967
AVA, MO 65608
Phone 417-683-5516
Manager: DAVID DAVIDSON
PO BOX 967
AVA, MO 65608
Phone 417-683-3169

Airport Operational Statistics

Aircraft based on the field: 10
Single engine airplanes: 8
Multi engine airplanes: 2
  • ULTRALIGHT ACTIVITY ON & INVOF ARPT.
    
Aircraft operations: avg 93/week *
79% local general aviation
11% military
10% transient general aviation
<1% air taxi
* for 12-month period ending 31 December 2015

Additional Remarks

NTSD RY SAFETY AREA BYD RY 13 END, INSUF LENGTH AND LARGE DROP OFF.
100LL SELF SVC CREDIT CARD AVBL 24 HRS.
CLICK PCL 5 TIMES TO UNLOCK TERMINAL DOOR.

Instrument Procedures

NOTE: All procedures below are presented as PDF files. If you need a reader for these files, you should download the free Adobe Reader.

NOT FOR NAVIGATION. Please procure official charts for flight.
FAA instrument procedures published for use from 23 May 2019 at 0901Z to 20 June 2019 at 0900Z.

 
IAPs - Instrument Approach Procedures
RNAV (GPS) RWY 13   download (171KB)
RNAV (GPS) RWY 31   download (162KB)
VOR-A   download (167KB)
NOTE: Special Take-Off Minimums/Departure Procedures apply   download (158KB)

Other nearby airports with instrument procedures:

1MO - Mountain Grove Memorial Airport (20 nm NE)
KTVB - Cabool Memorial Airport (30 nm E)
3DW - Downtown Airport (31 nm NW)
KPLK - M Graham Clark Downtown Airport (33 nm SW)
KBBG - Branson Airport (36 nm SW)
 
Loc | Ops | Rwys | IFR | FBO | Links
Com | Nav | Svcs | Stats | Notes

Branson Jet Center
AirBoss

 
Area around KAOV (Ava Bill Martin Memorial Airport)
 
Road maps at: MapQuest Bing Google
 
Aerial photo
WARNING: Photo may not be current or correct
Aerial photo of KAOV (Ava Bill Martin Memorial Airport)
Do you have a better or more recent aerial photo of Ava Bill Martin Memorial Airport that you would like to share? If so, please send us your photo.

 
Sectional chart

 
Airport distance calculator
Flying to Ava Bill Martin Memorial Airport? Find the distance to fly.

From to KAOV

Sunrise and sunset
Times for 18-Jun-2019
 Local
(UTC-5)
 Zulu
(UTC)
Morning civil twilight05:2110:21
Sunrise05:5210:52
Sunset20:3201:32
Evening civil twilight21:0302:03

Current date and time
Zulu (UTC)  19-Jun-2019 02:14:59
Local (UTC-5)  18-Jun-2019 21:14:59
 
METAR
KBBG 
36nm SW 
190155Z AUTO 00000KT 10SM BKN039 BKN049 OVC060 24/22 A2988 RMK AO2
KSGF 
37nm NW 
190152Z 00000KT 10SM FEW039 SCT055 BKN070 26/19 A2985 RMK AO2 SLP097 T02560189
KBPK 
38nm S 
190153Z AUTO 00000KT 10SM CLR 23/21 A2984 RMK AO2 SLP096 T02280206
KUNO 
38nm E 
190153Z AUTO 27003KT 10SM CLR 23/21 A2987 RMK AO2 SLP103 T02330206
KFWB 
38nm SW 
190155Z AUTO 00000KT 10SM CLR 23/22 A2988 RMK AO2
KLBO 
41nm N 
190155Z AUTO 00000KT 10SM BKN035 BKN043 23/21 A2988 RMK AO2
KFLP 
43nm S 
190156Z AUTO 00000KT 10SM CLR 24/22 A2985 RMK AO2 SLP101 T02440217
KHRO 
48nm SW 
190153Z AUTO 00000KT 10SM BKN047 23/21 A2987 RMK AO2 SLP102 T02280206
TAF
KBBG 
36nm SW 
181720Z 1818/1918 VRB04KT P6SM BKN050 FM182100 VRB04KT P6SM BKN250 FM190800 VRB04KT P6SM VCTS SCT025 BKN050CB TEMPO 1908/1912 4SM -TSRA BR OVC025CB FM191200 18008KT 4SM -TSRA BR OVC025CB FM191400 19010KT P6SM OVC025
KSGF 
37nm NW 
181744Z 1818/1918 VRB03KT P6SM SCT025 FM182100 VRB04KT P6SM BKN250 FM190600 17006KT P6SM VCTS SCT025 BKN050CB TEMPO 1906/1910 4SM -TSRA BR OVC025CB FM191000 18008KT 4SM -TSRA BR OVC015CB FM191400 21010KT P6SM OVC007
KBPK 
38nm S 
182019Z 1820/1918 VRB05KT P6SM SCT022 BKN050 FM190000 VRB04KT P6SM SCT100 BKN250 PROB30 1911/1914 2SM TSRA BKN040CB FM191400 22008KT 6SM -SHRA OVC025
NOTAMs
Click for the latest NOTAMs
NOTAMs are issued by the DoD/FAA and will open in a separate window not controlled by AirNav.

 

 
 

FBO, Fuel Providers, and Aircraft Ground Support

  
 Business Name 
 
 Contact 
 
 Services / Description 
 
Fuel Prices
 
Comments
  
City of Ava, Missouri 417-840-2301
417-683-5516
[web site]
[email]
Aviation fuel, Aircraft parking (ramp or tiedown), Passenger terminal and lounge, Aircraft maintenance, Rental cars delivered, Public telephone, Computerized weather, ...

More info about City of Ava, Missouri
Phillips 66
100LL
SS $4.45 
 Updated 12-Apr-2019
 
   write
SS=Self service
Update Fuel Prices
 

Would you like to see your business listed on this page?

 If your business provides an interesting product or service to pilots, flight crews, aircraft, or users of the Ava Bill Martin Memorial Airport, you should consider listing it here.  To start the listing process, click on the button below
 
Add a business
 

Other Pages about Ava Bill Martin Memorial Airport

Update a link
 
Copyright © AirNav, LLC. All rights reserved. Privacy Policy  Contact